• Join FlightAware (Why Join?)
  • Login
  • US Flag 
04:24PM EDT


 

Airport Tracker/Info


-or-


 

Live Flight TrackerFlight Track Log ✈ SWA1810 ✈ 24-Apr-2013 ✈ KMSY - KBWI

Flight Track Log - Related Links

Times and Time Zones

All times are in EDT time to prevent confusion due to time zone crossing. See the SWA1810 flight status page for this flight to view local times or setup timezone preferences in your user account.

Time Position Orientation Groundspeed Altitude Reporting Facility
EDT Latitude Longitude Course Direction KTS MPH feet Rate Location/Type
07:48AM 29.9761 -90.2539 199° South 154 177 900  Level Houston Center
07:48AM 29.9536 -90.2631 199° South 172 198 2,000 2,640 Climbing Houston Center
07:49AM 29.9136 -90.2611 178° South 203 234 4,400 2,820 Climbing Houston Center
07:49AM 29.9092 -90.2450 108° East 240 276 4,900 1,920 Climbing Houston Center
07:50AM 29.9306 -90.1981 62° Northeast 291 335 6,200 3,240 Climbing Houston Center
07:50AM 29.9697 -90.1717 30° Northeast 288 331 8,200 3,120 Climbing Houston Center
07:51AM 30.0425 -90.1175 33° Northeast 305 351 11,100 2,700 Climbing Houston Center
07:52AM 30.1300 -90.0581 30° Northeast 355 409 13,800 2,820 Climbing Houston Center
07:53AM 30.2117 -89.9772 41° Northeast 387 445 16,900 2,820 Climbing Houston Center
07:54AM 30.2786 -89.8747 53° Northeast 400 460 19,600 2,520 Climbing Houston Center
07:55AM 30.3444 -89.7756 52° Northeast 409 471 22,100 2,340 Climbing Houston Center
07:56AM 30.4328 -89.6494 51° Northeast 430 495 24,500 1,860 Climbing Houston Center
07:58AM 30.5108 -89.5353 52° Northeast 449 517 26,000 1,620 Climbing Houston Center
07:59AM 30.5886 -89.4122 54° Northeast 470 541 27,800 1,680 Climbing Houston Center
08:00AM 30.6686 -89.2867 53° Northeast 482 555 29,500 1,560 Climbing Houston Center
08:01AM 30.7458 -89.1556 56° Northeast 491 565 31,000 1,020 Climbing Houston Center
08:02AM 30.8272 -89.0239 54° Northeast 498 573 31,600 1,140 Climbing Houston Center
08:03AM 30.9106 -88.8844 55° Northeast 500 575 33,400 1,440 Climbing Houston Center
08:04AM 30.9858 -88.7472 57° Northeast 502 578 34,600 780 Climbing Houston Center
08:05AM 31.0564 -88.6108 59° Northeast 516 594 35,000 780 Climbing Houston Center
08:06AM 31.1464 -88.4383 59° Northeast 518 596 36,300 1,020 Climbing Houston Center
08:07AM 31.2178 -88.3142 56° Northeast 515 593 37,000 360 Climbing Atlanta Center
08:08AM 31.2894 -88.1719 59° Northeast 515 593 37,000  Level Atlanta Center
08:09AM 31.3631 -88.0269 59° Northeast 515 593 37,000  Level Atlanta Center
08:10AM 31.4275 -87.9008 59° Northeast 509 586 37,000  Level Atlanta Center
08:11AM 31.5008 -87.7578 59° Northeast 503 579 37,000  Level Atlanta Center
08:12AM 31.5736 -87.6194 58° Northeast 503 579 37,000  Level Atlanta Center
08:13AM 31.6444 -87.4783 59° Northeast 503 579 37,000  Level Atlanta Center
08:14AM 31.7172 -87.3394 58° Northeast 503 579 37,000  Level Atlanta Center
08:15AM 31.7900 -87.1833 61° Northeast 495 570 37,000  Level Atlanta Center
08:16AM 31.8625 -87.0417 59° Northeast 495 570 37,000  Level Atlanta Center
08:17AM 31.9325 -86.9044 59° Northeast 495 570 37,000  Level Atlanta Center
08:18AM 32.0025 -86.7597 60° Northeast 495 570 37,000  Level Atlanta Center
08:19AM 32.0719 -86.6369 56° Northeast 503 579 37,000  Level Atlanta Center
08:20AM 32.1417 -86.4942 60° Northeast 503 579 37,000  Level Atlanta Center
08:22AM 32.2889 -86.2181 58° Northeast 503 579 37,000  Level Atlanta Center
08:23AM 32.3767 -86.0900 51° Northeast 497 572 37,000  Level Atlanta Center
08:24AM 32.4622 -85.9639 51° Northeast 490 564 37,000  Level Atlanta Center
08:25AM 32.5497 -85.8353 51° Northeast 488 562 37,000  Level Atlanta Center
08:26AM 32.6328 -85.7061 53° Northeast 493 567 37,000  Level Atlanta Center
08:27AM 32.7200 -85.5769 51° Northeast 493 567 37,000  Level Atlanta Center
08:28AM 32.8053 -85.4500 51° Northeast 493 567 37,000  Level Atlanta Center
08:29AM 32.8922 -85.3203 51° Northeast 493 567 37,000  Level Atlanta Center
08:30AM 32.9769 -85.1928 52° Northeast 493 567 37,000  Level Atlanta Center
08:31AM 33.0572 -85.0700 52° Northeast 479 551 37,000  Level Atlanta Center
08:32AM 33.1439 -84.9419 51° Northeast 479 551 37,000  Level Atlanta Center
08:33AM 33.2242 -84.8161 53° Northeast 479 551 37,000  Level Atlanta Center
08:34AM 33.3061 -84.6875 53° Northeast 485 558 37,000  Level Atlanta Center
08:35AM 33.3883 -84.5614 52° Northeast 485 558 37,000  Level Atlanta Center
08:36AM 33.4722 -84.4322 52° Northeast 485 558 37,000  Level Atlanta Center
08:37AM 33.5539 -84.3056 52° Northeast 485 558 37,000  Level Atlanta Center
08:38AM 33.6356 -84.1736 53° Northeast 488 562 37,000  Level Atlanta Center
08:39AM 33.7192 -84.0439 52° Northeast 488 562 37,000  Level Atlanta Center
08:40AM 33.8025 -83.9139 52° Northeast 488 562 37,000  Level Atlanta Center
08:41AM 33.8836 -83.7861 53° Northeast 481 554 37,000  Level Atlanta Center
08:42AM 33.9669 -83.6556 52° Northeast 489 563 37,000  Level Atlanta Center
08:43AM 34.0539 -83.5172 53° Northeast 484 557 37,000  Level Atlanta Center
08:44AM 34.1389 -83.3861 52° Northeast 484 557 37,000  Level Atlanta Center
08:45AM 34.2156 -83.2575 54° Northeast 476 548 37,000  Level Atlanta Center
08:46AM 34.3000 -83.1286 52° Northeast 481 554 37,000  Level Atlanta Center
08:47AM 34.3783 -83.0019 53° Northeast 481 554 37,000  Level Atlanta Center
08:48AM 34.4567 -82.8725 54° Northeast 481 554 37,000  Level Atlanta Center
08:49AM 34.5367 -82.7453 53° Northeast 481 554 37,000  Level Atlanta Center
08:50AM 34.6189 -82.6178 52° Northeast 481 554 37,000  Level Atlanta Center
08:51AM 34.6861 -82.5003 55° Northeast 476 548 37,000  Level Atlanta Center
08:52AM 34.7658 -82.3700 53° Northeast 476 548 37,000  Level Atlanta Center
08:53AM 34.8456 -82.2419 53° Northeast 481 554 37,000  Level Atlanta Center
08:54AM 34.9331 -82.1006 53° Northeast 481 554 37,000  Level Atlanta Center
08:55AM 35.0042 -81.9822 54° Northeast 481 554 37,000  Level Atlanta Center
08:56AM 35.0769 -81.8461 57° Northeast 481 554 37,000  Level Atlanta Center
08:57AM 35.1494 -81.7119 57° Northeast 476 548 37,000  Level Atlanta Center
08:58AM 35.2200 -81.5753 58° Northeast 476 548 37,000  Level Atlanta Center
08:59AM 35.2881 -81.4433 58° Northeast 471 542 37,000  Level Atlanta Center
09:00AM 35.3603 -81.3061 57° Northeast 466 536 37,000  Level Atlanta Center
09:01AM 35.4281 -81.1689 59° Northeast 461 531 37,000  Level Atlanta Center
09:02AM 35.5000 -81.0311 57° Northeast 466 536 37,000  Level Atlanta Center
09:03AM 35.5697 -80.8983 57° Northeast 466 536 37,000  Level Atlanta Center
09:04AM 35.6411 -80.7653 57° Northeast 466 536 37,000  Level Atlanta Center
09:05AM 35.7664 -80.5222 58° Northeast 439 505 37,000  Level Washington Center
09:06AM 35.8369 -80.3833 58° Northeast 470 541 37,000  Level Washington Center
09:07AM 35.9025 -80.2539 58° Northeast 459 528 37,000  Level Washington Center
09:08AM 35.9725 -80.1169 58° Northeast 468 539 37,000  Level Washington Center
09:09AM 36.0467 -79.9722 58° Northeast 460 529 37,000  Level Washington Center
09:10AM 36.1222 -79.8453 54° Northeast 460 529 37,000  Level Washington Center
09:11AM 36.1956 -79.7153 55° Northeast 460 529 37,000 -60 Level Washington Center
09:12AM 36.2689 -79.5825 56° Northeast 460 529 36,900 -540 Descending Washington Center
09:13AM 36.3353 -79.4675 54° Northeast 456 525 36,000 -960 Descending Washington Center
09:14AM 36.4083 -79.3342 56° Northeast 462 532 35,000 -540 Descending Washington Center
09:15AM 36.4814 -79.2033 55° Northeast 467 537 35,000 -420 Level Washington Center
09:16AM 36.5650 -79.0597 54° Northeast 467 537 34,200 -1,440 Descending Washington Center
09:17AM 36.6375 -78.9283 55° Northeast 467 537 32,200 -2,580 Descending Washington Center
09:18AM 36.7100 -78.7917 56° Northeast 460 529 29,100 -1,620 Descending Washington Center
09:19AM 36.7822 -78.6625 55° Northeast 460 529 29,000 -300 Descending Washington Center
09:20AM 36.8458 -78.5403 57° Northeast 460 529 28,500 -720 Descending Washington Center
09:21AM 36.9178 -78.4158 54° Northeast 453 521 27,600 -960 Descending Washington Center
09:22AM 37.0097 -78.3178 40° Northeast 448 516 26,600 -1,020 Descending Washington Center
09:23AM 37.1075 -78.2325 35° Northeast 427 491 25,600 -960 Descending Washington Center
09:24AM 37.1967 -78.1628 32° Northeast 427 491 24,700 -840 Descending Washington Center
09:25AM 37.3092 -78.0672 34° Northeast 416 479 24,000 -420 Descending Washington Center
09:26AM 37.4028 -77.9839 35° Northeast 416 479 23,900 -540 Descending Washington Center
09:27AM 37.4981 -77.9033 34° Northeast 411 473 23,000 -480 Descending Washington Center
09:28AM 37.5914 -77.8247 34° Northeast 404 465 23,000  Level Washington Center
09:29AM 37.6847 -77.7436 35° Northeast 404 465 23,000  Level Washington Center
09:30AM 37.7694 -77.6725 34° Northeast 404 465 23,000  Level Washington Center
09:31AM 37.8647 -77.5883 35° Northeast 404 465 23,000 -360 Level Washington Center
09:32AM 37.9578 -77.5039 36° Northeast 404 465 22,300 -900 Descending Washington Center
09:33AM 38.0506 -77.4322 31° Northeast 404 465 21,300 -1,020 Descending Washington Center
09:34AM 38.1417 -77.3500 35° Northeast 399 459 20,300 -1,440 Descending Washington Center
09:35AM 38.2303 -77.2728 34° Northeast 399 459 18,500 -1,920 Descending Washington Center
09:36AM 38.3147 -77.1981 35° Northeast 382 440 16,500 -1,800 Descending Washington Center
09:37AM 38.3969 -77.1203 37° Northeast 374 430 15,000 -1,740 Descending Washington Center
09:38AM 38.4689 -77.0317 44° Northeast 362 417 13,100 -1,560 Descending Washington Center
09:39AM 38.5389 -76.9481 43° Northeast 350 403 11,900 -1,440 Descending Washington Center
09:40AM 38.6147 -76.8564 43° Northeast 338 389 10,300 -1,200 Descending Washington Center
09:41AM 38.6761 -76.7831 43° Northeast 317 365 9,500 -1,020 Descending Washington Center
09:42AM 38.7228 -76.6986 55° Northeast 303 349 8,300 -1,200 Descending Washington Center
09:43AM 38.7667 -76.6167 55° Northeast 284 327 7,400 -1,200 Descending Potomac TRACON
09:44AM 38.8000 -76.5333 63° Northeast 284 327 6,100 -1,200 Descending Potomac TRACON
09:45AM 38.8667 -76.5500 349° North 261 300 5,100 -900 Descending Potomac TRACON
09:46AM 38.9333 -76.5833 339° North 260 299 4,300 -600 Descending Potomac TRACON
09:47AM 38.9833 -76.6333 322° Northwest 239 275 4,000 -180 Descending Potomac TRACON
09:48AM 39.0167 -76.7000 303° West 231 266 4,000  Level Potomac TRACON
09:49AM 39.0500 -76.7667 303° West 234 269 4,000 -300 Level Potomac TRACON
09:50AM 39.1000 -76.8167 322° Northwest 233 268 3,400 -960 Descending Potomac TRACON
09:51AM 39.1667 -76.8500 339° North 228 262 2,100 -960 Descending Potomac TRACON
09:52AM 39.1833 -76.7833 72° East 234 269 1,500 -600 Descending Potomac TRACON
09:53AM 39.1833 -76.7167 90° East 167 192 1,000 600 Descending Potomac TRACON
09:54AM 39.1667 -76.6500 108° East 227 261 2,800 960 Climbing Potomac TRACON
09:55AM 39.1500 -76.5667 104° East 242 278 3,000 60 Climbing Potomac TRACON
09:56AM 39.1167 -76.6333 237° Southwest 211 243 3,000 -300 Level Potomac TRACON
09:57AM 39.1000 -76.7000 252° West 204 235 2,400 -540 Descending Potomac TRACON
09:58AM 39.1167 -76.7667 288° West 185 213 2,000 -240 Descending Potomac TRACON
09:59AM 39.1167 -76.8333 270° West 176 203 2,000  Level Potomac TRACON